Saint Paul, Kansas
Current Conditions -  °F | °C
As of 6:52 PM on Monday 24 Nov 2014 (Local Time) from KCNU Reporting Station
Clear Clear  
Wind Chill: 33°   Ceiling: Unl
Heat Index: 39°   Visibility: 10mi
Dew Point: 21°   Wind: 9mph
Humidity: 49%   Direction: 300°WNW
Pressure: 30.03"   Gusts: NA
Location:  37.52°N, 95.17°W
Report Text: KCNU 250052Z AUTO 30008KT 10SM CLR 04/M06 A3003 RMK AO2 SLP173 T00391061
Loading
Personal Weather Stations






























Interactive Weather Map New forecast layout! Learn more

10-Day Weather Forecast

Advertisements
Track Severe Weather on mobile